createdAt,value
2023-05-08T00:00:59.184Z,12.65
2023-05-08T00:11:10.046Z,7.88
2023-05-08T00:16:13.698Z,7.68
2023-05-08T00:21:18.401Z,8.88
2023-05-08T00:26:22.128Z,7.85
2023-05-08T00:31:25.703Z,11.18
2023-05-08T00:36:30.369Z,9.07
2023-05-08T00:41:34.026Z,11.45
2023-05-08T00:46:38.320Z,9.63
2023-05-08T00:51:45.057Z,9.70
2023-05-08T00:56:50.437Z,10.00
2023-05-08T01:01:54.818Z,8.25
2023-05-08T01:07:00.230Z,7.50
2023-05-08T01:12:11.670Z,7.75
2023-05-08T01:17:28.523Z,8.57
2023-05-08T01:22:55.074Z,7.70
2023-05-08T01:28:30.361Z,16.63
2023-05-08T01:33:42.774Z,10.07
2023-05-08T01:38:54.733Z,7.95
2023-05-08T01:44:11.768Z,7.72
2023-05-08T01:49:23.270Z,7.90
2023-05-08T01:54:31.279Z,9.95
2023-05-08T01:59:36.639Z,9.43
2023-05-08T02:04:42.408Z,10.33
2023-05-08T02:09:46.080Z,8.75
2023-05-08T02:14:53.794Z,8.53
2023-05-08T02:20:00.342Z,12.02
2023-05-08T02:25:05.474Z,8.82
2023-05-08T02:30:11.290Z,10.38
2023-05-08T02:35:18.409Z,8.70
2023-05-08T02:40:24.103Z,10.98
2023-05-08T02:45:34.180Z,10.68
2023-05-08T02:50:46.550Z,9.75
2023-05-08T02:55:53.697Z,12.55
2023-05-08T03:01:06.546Z,11.55
2023-05-08T03:06:15.221Z,11.80
2023-05-08T03:11:22.747Z,9.65
2023-05-08T03:16:29.122Z,11.02
2023-05-08T03:21:34.150Z,10.73
2023-05-08T03:26:38.359Z,11.30
2023-05-08T03:31:43.686Z,12.48
2023-05-08T03:36:48.743Z,10.90
2023-05-08T03:41:52.566Z,11.65
2023-05-08T03:46:59.081Z,14.18
2023-05-08T03:52:04.755Z,11.13
2023-05-08T03:57:08.495Z,13.32
2023-05-08T04:02:19.702Z,12.35
2023-05-08T04:07:31.627Z,12.27
2023-05-08T04:12:41.580Z,13.70
2023-05-08T04:17:49.209Z,11.75
2023-05-08T04:22:56.112Z,14.45
2023-05-08T04:28:02.686Z,14.25
2023-05-08T04:33:07.431Z,18.75
2023-05-08T04:38:13.357Z,11.50
2023-05-08T04:48:20.707Z,11.45
2023-05-08T04:53:25.444Z,12.57
2023-05-08T04:58:30.084Z,12.02
2023-05-08T05:03:34.434Z,13.63
2023-05-08T05:08:39.410Z,10.57
2023-05-08T05:13:43.090Z,12.90
2023-05-08T05:18:46.888Z,10.65
2023-05-08T05:23:51.921Z,16.77
2023-05-08T05:28:55.573Z,11.55
2023-05-08T05:33:59.466Z,11.35
2023-05-08T05:39:04.866Z,14.43
2023-05-08T05:44:09.500Z,15.05
2023-05-08T05:49:13.362Z,11.63
2023-05-08T05:54:18.999Z,17.38
2023-05-08T05:59:22.951Z,11.70
2023-05-08T06:04:26.863Z,12.30
2023-05-08T06:09:32.145Z,10.73
2023-05-08T06:14:35.974Z,8.73
2023-05-08T06:19:39.299Z,10.95
2023-05-08T06:24:44.837Z,9.13
2023-05-08T06:29:48.729Z,11.73
2023-05-08T06:34:52.235Z,11.65
2023-05-08T06:40:10.324Z,11.55
2023-05-08T06:45:14.994Z,10.52
2023-05-08T06:50:18.801Z,9.55
2023-05-08T06:55:23.865Z,9.10
2023-05-08T07:00:27.337Z,9.77
2023-05-08T07:05:30.552Z,11.25
2023-05-08T07:10:35.338Z,7.50
2023-05-08T07:15:39.050Z,7.33
2023-05-08T07:20:42.234Z,9.95
2023-05-08T07:25:47.394Z,10.23
2023-05-08T07:30:52.035Z,10.30
2023-05-08T07:35:55.528Z,11.67
2023-05-08T07:41:02.472Z,8.85
2023-05-08T07:46:06.823Z,12.13
2023-05-08T07:51:11.566Z,9.68
2023-05-08T07:56:16.463Z,8.77
2023-05-08T08:01:20.019Z,7.80
2023-05-08T08:06:23.547Z,16.95
2023-05-08T08:11:28.917Z,9.75
2023-05-08T08:16:32.756Z,9.52
2023-05-08T08:21:36.553Z,11.02
2023-05-08T08:26:41.699Z,10.15
2023-05-08T08:31:45.524Z,8.73
2023-05-08T08:36:49.019Z,12.45
2023-05-08T08:41:54.064Z,8.18
2023-05-08T08:47:00.497Z,10.18
2023-05-08T08:52:12.271Z,9.10
2023-05-08T08:57:17.984Z,10.80
2023-05-08T09:02:24.226Z,12.75
2023-05-08T09:07:30.419Z,9.75
2023-05-08T09:12:35.556Z,9.88
2023-05-08T09:17:39.530Z,19.23
2023-05-08T09:22:44.155Z,9.82
2023-05-08T09:27:49.126Z,7.83
2023-05-08T09:33:02.516Z,12.25
2023-05-08T09:38:06.604Z,10.80
2023-05-08T09:43:15.359Z,8.80
2023-05-08T09:48:19.490Z,7.93
2023-05-08T09:53:32.689Z,9.10
2023-05-08T09:58:41.963Z,7.00
2023-05-08T10:03:48.604Z,8.10
2023-05-08T10:09:08.042Z,6.22
2023-05-08T10:14:12.924Z,6.78
2023-05-08T10:19:18.796Z,5.78
2023-05-08T10:24:27.738Z,8.00
2023-05-08T10:29:43.061Z,6.28
2023-05-08T10:34:51.076Z,6.05
2023-05-08T10:39:55.845Z,11.85
2023-05-08T10:45:01.730Z,7.55
2023-05-08T10:50:13.855Z,4.53
2023-05-08T10:55:24.418Z,6.95
2023-05-08T11:00:34.560Z,4.90
2023-05-08T11:05:47.917Z,8.65
2023-05-08T11:11:00.625Z,5.65
2023-05-08T11:16:07.173Z,3.90
2023-05-08T11:21:22.074Z,3.65
2023-05-08T11:26:41.015Z,8.15
2023-05-08T11:31:55.692Z,3.75
2023-05-08T11:37:10.978Z,5.77
2023-05-08T11:42:36.306Z,6.55
2023-05-08T11:47:43.201Z,2.75
2023-05-08T11:52:46.779Z,2.90
2023-05-08T11:57:50.377Z,7.28
2023-05-08T12:02:55.165Z,3.47
2023-05-08T12:07:58.832Z,5.20
2023-05-08T12:13:02.484Z,4.78
2023-05-08T12:18:07.946Z,1.90
2023-05-08T12:23:12.101Z,3.30
2023-05-08T12:28:15.851Z,4.53
2023-05-08T12:33:21.732Z,4.63
2023-05-08T12:38:28.394Z,6.72
2023-05-08T12:43:36.512Z,4.65
2023-05-08T12:48:41.626Z,2.03
2023-05-08T12:53:48.123Z,4.10
2023-05-08T12:58:51.981Z,5.50
2023-05-08T13:04:02.333Z,4.20
2023-05-08T13:09:07.000Z,5.15
2023-05-08T13:14:10.833Z,4.85
2023-05-08T13:19:16.400Z,3.70
2023-05-08T13:24:20.065Z,3.72
2023-05-08T13:29:23.857Z,1.80
2023-05-08T13:34:28.776Z,2.38
2023-05-08T13:39:33.369Z,2.90
2023-05-08T13:44:37.062Z,4.45
2023-05-08T13:49:42.113Z,3.60
2023-05-08T13:59:49.487Z,8.88
2023-05-08T14:04:54.445Z,4.97
2023-05-08T14:09:58.267Z,1.73
2023-05-08T14:15:02.038Z,5.40
2023-05-08T14:20:09.173Z,1.75
2023-05-08T14:25:14.964Z,10.50
2023-05-08T14:30:18.941Z,4.25
2023-05-08T14:35:23.981Z,5.45
2023-05-08T14:40:27.568Z,2.88
2023-05-08T14:45:31.175Z,3.63
2023-05-08T14:50:36.209Z,2.65
2023-05-08T15:00:43.817Z,4.32
2023-05-08T15:05:48.806Z,4.45
2023-05-08T15:10:52.734Z,4.22
2023-05-08T15:15:56.690Z,5.68
2023-05-08T15:21:01.719Z,10.70
2023-05-08T15:31:08.943Z,4.93
2023-05-08T15:36:14.733Z,4.68
2023-05-08T15:41:18.468Z,3.70
2023-05-08T15:46:21.791Z,2.85
2023-05-08T15:51:26.968Z,2.03
2023-05-08T15:56:30.550Z,3.63
2023-05-08T16:01:34.306Z,3.70
2023-05-08T16:06:39.325Z,8.02
2023-05-08T16:16:47.523Z,5.25
2023-05-08T16:21:52.488Z,8.38
2023-05-08T16:26:56.024Z,3.05
2023-05-08T16:31:59.728Z,8.38
2023-05-08T16:37:04.787Z,7.60
2023-05-08T16:42:08.520Z,7.10
2023-05-08T16:47:12.587Z,2.65
2023-05-08T16:52:17.702Z,6.53
2023-05-08T16:57:21.461Z,2.63
2023-05-08T17:02:25.209Z,2.22
2023-05-08T17:07:30.401Z,2.88
2023-05-08T17:12:33.944Z,3.88
2023-05-08T17:17:37.513Z,3.28
2023-05-08T17:22:42.565Z,1.75
2023-05-08T17:27:45.836Z,2.65
2023-05-08T17:37:56.546Z,4.25
2023-05-08T17:43:00.302Z,4.10
2023-05-08T17:48:03.795Z,5.22
2023-05-08T17:53:08.889Z,4.53
2023-05-08T17:58:12.884Z,3.80
2023-05-08T18:03:18.405Z,4.15
2023-05-08T18:08:23.116Z,3.00
2023-05-08T18:13:27.013Z,4.18
2023-05-08T18:18:30.654Z,4.97
2023-05-08T18:23:35.261Z,3.55
2023-05-08T18:28:38.538Z,4.10
2023-05-08T18:33:41.825Z,2.95
2023-05-08T18:38:46.421Z,8.18
2023-05-08T18:43:49.685Z,10.20
2023-05-08T18:48:52.932Z,4.85
2023-05-08T18:53:57.512Z,4.22
2023-05-08T18:59:01.137Z,3.37
2023-05-08T19:04:04.561Z,8.18
2023-05-08T19:09:09.387Z,6.88
2023-05-08T19:14:12.697Z,6.50
2023-05-08T19:19:16.449Z,5.88
2023-05-08T19:24:24.057Z,5.57
2023-05-08T19:29:27.759Z,3.80
2023-05-08T19:34:32.566Z,4.20
2023-05-08T19:39:37.602Z,7.72
2023-05-08T19:44:41.419Z,4.60
2023-05-08T19:49:45.049Z,8.80
2023-05-08T19:54:50.002Z,5.07
2023-05-08T19:59:53.775Z,7.70
2023-05-08T20:10:08.082Z,6.18
2023-05-08T20:15:12.284Z,8.40
2023-05-08T20:20:16.107Z,8.13
2023-05-08T20:25:21.431Z,7.20
2023-05-08T20:30:25.071Z,6.82
2023-05-08T20:35:28.659Z,6.28
2023-05-08T20:40:33.733Z,6.55
2023-05-08T20:45:37.420Z,5.70
2023-05-08T20:50:40.998Z,10.75
2023-05-08T20:55:46.081Z,8.07
2023-05-08T21:00:49.827Z,7.90
2023-05-08T21:05:53.600Z,6.55
2023-05-08T21:10:58.660Z,8.40
2023-05-08T21:16:02.320Z,5.72
2023-05-08T21:21:05.987Z,5.53
2023-05-08T21:26:10.955Z,14.73
2023-05-08T21:31:14.690Z,8.83
2023-05-08T21:36:18.340Z,9.05
2023-05-08T21:41:23.374Z,8.48
2023-05-08T21:46:27.077Z,7.20
2023-05-08T21:51:31.806Z,15.40
2023-05-08T21:56:36.724Z,9.25
2023-05-08T22:01:40.393Z,8.07
2023-05-08T22:06:44.923Z,9.90
2023-05-08T22:11:49.974Z,9.32
2023-05-08T22:16:54.049Z,7.57
2023-05-08T22:21:57.662Z,10.88
2023-05-08T22:27:02.585Z,11.85
2023-05-08T22:32:08.569Z,10.13
2023-05-08T22:37:12.245Z,10.48
2023-05-08T22:42:18.119Z,10.40
2023-05-08T22:47:21.879Z,17.38
2023-05-08T22:52:25.738Z,10.55
2023-05-08T22:57:30.816Z,14.25
2023-05-08T23:02:35.243Z,13.15
2023-05-08T23:07:38.984Z,9.40
2023-05-08T23:12:44.004Z,12.38
2023-05-08T23:17:47.736Z,11.55
2023-05-08T23:22:51.291Z,11.30
2023-05-08T23:27:56.442Z,10.18
2023-05-08T23:33:00.165Z,13.30
2023-05-08T23:38:03.877Z,14.20
2023-05-08T23:43:08.821Z,13.98
2023-05-08T23:48:12.508Z,15.30
2023-05-08T23:53:16.984Z,13.38
2023-05-08T23:58:21.870Z,9.15
